Okarche, Oklahoma
Current Conditions -  °F | °C
As of 10:15 AM on Friday 31 Oct 2014 (Local Time) from KRQO Reporting Station
Broken Clouds Broken Clouds  
Wind Chill: 37°   Ceiling: 1500
Heat Index: 45°   Visibility: 10mi
Dew Point: 37°   Wind: 18mph
Humidity: 76%   Direction: 360°N
Pressure: 30.44"   Gusts: 23mph
Location:  35.73°N, 97.98°W
Report Text: KRQO 311515Z AUTO 36016G20KT 10SM BKN015 07/03 A3044 RMK AO2
Loading
Personal Weather Stations






























Interactive Weather Map
Tropical Storm Tracking
New forecast layout! Learn more

10-Day Weather Forecast

Advertisements
Track Severe Weather on mobile